This is the latest recevied weather packets stored in our database for station/object DN9EM-2. If no packets are shown the sender has not sent any weather packets the latest 10 day(s).
| Time | Temp. | Humidity | Pressure | Rain* | Wind** | Luminosity | Snow |
|---|---|---|---|---|---|---|---|
| 1777831245 | 17.78° C | 74% | 1010.2 hPa | 0 mm | - | - | - |
| 1777830642 | 18.33° C | 72% | 1010.1 hPa | 0 mm | - | - | - |
| 1777830040 | 18.33° C | 71% | 1010 hPa | 0 mm | - | - | - |
| 1777829437 | 19.44° C | 68% | 1009.8 hPa | 0 mm | - | - | - |
| 1777828834 | 20.56° C | 65% | 1009.7 hPa | 0 mm | - | - | - |
| 1777828231 | 22.78° C | 48% | 1009.3 hPa | 0 mm | - | - | - |
| 1777827629 | 22.78° C | 48% | 1009.2 hPa | 0 mm | - | - | - |
| 1777827026 | 22.78° C | 48% | 1009 hPa | 0 mm | - | - | - |
| 1777826424 | 23.33° C | 47% | 1009.1 hPa | 0 mm | - | - | - |
| 1777825821 | 23.33° C | 46% | 1009.2 hPa | 0 mm | - | - | - |
| 1777825218 | 23.33° C | 46% | 1009.2 hPa | 0 mm | - | - | - |
| 1777824616 | 23.89° C | 46% | 1009.4 hPa | 0 mm | - | - | - |
| 1777824073 | 24.44° C | 46% | 1009.3 hPa | 0 mm | - | - | - |
| 1777823471 | 25.56° C | 45% | 1009.3 hPa | 0 mm | - | - | - |
| 1777822868 | 24.44° C | 49% | 1009.3 hPa | 0 mm | - | - | - |
| 1777822265 | 24.44° C | 52% | 1009.4 hPa | 0 mm | - | - | - |
| 1777821663 | 25° C | 52% | 1009.5 hPa | 0 mm | - | - | - |
| 1777821060 | 24.44° C | 53% | 1009.6 hPa | 0 mm | - | - | - |
| 1777820458 | 25° C | 53% | 1009.8 hPa | 0 mm | - | - | - |
| 1777819855 | 25.56° C | 52% | 1010 hPa | 0 mm | - | - | - |
| 1777819253 | 25.56° C | 52% | 1010 hPa | 0 mm | - | - | - |
| 1777818650 | 25.56° C | 51% | 1010.3 hPa | 0 mm | - | - | - |
| 1777818047 | 25.56° C | 51% | 1010.4 hPa | 0 mm | - | - | - |
| 1777817445 | 25° C | 52% | 1010.5 hPa | 0 mm | - | - | - |
| 1777816842 | 24.44° C | 53% | 1010.5 hPa | 0 mm | - | - | - |
* Rain latest hour (hover to see other rain measurements)
** Current wind speed in m/s (hover to see current wind gust speed)